createdAt,value
2019-05-01T00:00:16.277Z,1010.48
2019-05-01T00:01:13.840Z,1010.45
2019-05-01T00:02:13.828Z,1010.39
2019-05-01T00:03:13.818Z,1010.38
2019-05-01T00:04:13.807Z,1010.40
2019-05-01T00:05:13.796Z,1010.41
2019-05-01T00:06:13.823Z,1010.36
2019-05-01T00:07:13.775Z,1010.34
2019-05-01T00:08:13.762Z,1010.39
2019-05-01T00:09:13.752Z,1010.35
2019-05-01T00:10:13.741Z,1010.39
2019-05-01T00:11:13.736Z,1010.35
2019-05-01T00:12:13.723Z,1010.33
2019-05-01T00:13:13.711Z,1010.40
2019-05-01T00:14:13.701Z,1010.37
2019-05-01T00:15:13.691Z,1010.44
2019-05-01T00:16:13.680Z,1010.46
2019-05-01T00:17:13.666Z,1010.45
2019-05-01T00:18:13.655Z,1010.47
2019-05-01T00:19:13.646Z,1010.45
2019-05-01T00:20:13.635Z,1010.41
2019-05-01T00:21:13.623Z,1010.39
2019-05-01T00:22:13.613Z,1010.38
2019-05-01T00:23:13.602Z,1010.37
2019-05-01T00:24:13.597Z,1010.39
2019-05-01T00:25:13.580Z,1010.34
2019-05-01T00:26:13.573Z,1010.34
2019-05-01T00:27:13.559Z,1010.29
2019-05-01T00:28:13.549Z,1010.30
2019-05-01T00:29:13.537Z,1010.28
2019-05-01T00:30:13.526Z,1010.25
2019-05-01T00:31:13.658Z,1010.28
2019-05-01T00:32:13.507Z,1010.25
2019-05-01T00:33:13.499Z,1010.23
2019-05-01T00:34:13.482Z,1010.26
2019-05-01T00:35:13.472Z,1010.25
2019-05-01T00:36:13.461Z,1010.26
2019-05-01T00:37:13.450Z,1010.28
2019-05-01T00:38:13.440Z,1010.21
2019-05-01T00:39:13.431Z,1010.24
2019-05-01T00:40:13.418Z,1010.20
2019-05-01T00:41:13.408Z,1010.20
2019-05-01T00:42:13.403Z,1010.15
2019-05-01T00:43:13.386Z,1010.18
2019-05-01T00:44:13.374Z,1010.11
2019-05-01T00:45:13.385Z,1010.19
2019-05-01T00:46:13.356Z,1010.12
2019-05-01T00:47:13.343Z,1010.13
2019-05-01T00:48:13.335Z,1010.14
2019-05-01T00:49:13.322Z,1010.13
2019-05-01T00:50:13.310Z,1010.14
2019-05-01T00:51:13.306Z,1010.11
2019-05-01T00:52:13.295Z,1010.06
2019-05-01T00:53:13.278Z,1010.05
2019-05-01T00:54:13.266Z,1010.08
2019-05-01T00:55:13.257Z,1010.04
2019-05-01T00:56:13.245Z,1010.03
2019-05-01T00:57:13.235Z,1010.03
2019-05-01T00:58:13.224Z,1010.03
2019-05-01T00:59:13.213Z,1010.02
2019-05-01T01:00:13.203Z,1010.03
2019-05-01T01:01:13.194Z,1010.02
2019-05-01T01:02:13.189Z,1010.00
2019-05-01T01:03:13.171Z,1009.98
2019-05-01T01:04:13.163Z,1009.97
2019-05-01T01:05:13.148Z,1009.97
2019-05-01T01:06:13.137Z,1009.94
2019-05-01T01:07:13.127Z,1009.94
2019-05-01T01:08:13.121Z,1009.93
2019-05-01T01:09:13.105Z,1009.87
2019-05-01T01:10:13.096Z,1009.94
2019-05-01T01:11:13.084Z,1009.89
2019-05-01T01:12:13.073Z,1009.89
2019-05-01T01:13:13.062Z,1009.87
2019-05-01T01:14:13.054Z,1009.89
2019-05-01T01:15:13.043Z,1009.89
2019-05-01T01:16:13.034Z,1009.80
2019-05-01T01:17:13.021Z,1009.89
2019-05-01T01:18:13.009Z,1009.88
2019-05-01T01:19:12.998Z,1009.87
2019-05-01T01:20:12.989Z,1009.88
2019-05-01T01:21:12.978Z,1009.91
2019-05-01T01:22:12.965Z,1009.86
2019-05-01T01:23:12.956Z,1009.80
2019-05-01T01:24:12.944Z,1009.81
2019-05-01T01:25:12.937Z,1009.80
2019-05-01T01:26:12.922Z,1009.77
2019-05-01T01:27:12.913Z,1009.74
2019-05-01T01:28:12.901Z,1009.72
2019-05-01T01:29:12.890Z,1009.74
2019-05-01T01:30:12.881Z,1009.72
2019-05-01T01:31:13.006Z,1009.75
2019-05-01T01:32:12.858Z,1009.71
2019-05-01T01:33:12.849Z,1009.67
2019-05-01T01:34:12.835Z,1009.70
2019-05-01T01:35:12.827Z,1009.67
2019-05-01T01:36:12.815Z,1009.69
2019-05-01T01:37:12.808Z,1009.68
2019-05-01T01:38:12.797Z,1009.73
2019-05-01T01:39:12.782Z,1009.70
2019-05-01T01:40:12.829Z,1009.69
2019-05-01T01:41:12.764Z,1009.63
2019-05-01T01:42:12.750Z,1009.67
2019-05-01T01:43:12.740Z,1009.67
2019-05-01T01:44:12.731Z,1009.66
2019-05-01T01:45:12.718Z,1009.60
2019-05-01T01:46:12.708Z,1009.61
2019-05-01T01:47:12.697Z,1009.58
2019-05-01T01:48:12.686Z,1009.59
2019-05-01T01:49:12.676Z,1009.64
2019-05-01T01:50:12.662Z,1009.58
2019-05-01T01:51:12.654Z,1009.56
2019-05-01T01:52:12.642Z,1009.55
2019-05-01T01:53:12.631Z,1009.50
2019-05-01T01:54:12.621Z,1009.51
2019-05-01T01:55:12.609Z,1009.52
2019-05-01T01:56:12.599Z,1009.47
2019-05-01T01:57:12.588Z,1009.47
2019-05-01T01:58:12.579Z,1009.49
2019-05-01T01:59:12.567Z,1009.55
2019-05-01T02:00:12.556Z,1009.51
2019-05-01T02:01:12.544Z,1009.49
2019-05-01T02:02:12.536Z,1009.50
2019-05-01T02:03:12.524Z,1009.45
2019-05-01T02:04:12.513Z,1009.44
2019-05-01T02:05:12.502Z,1009.43
2019-05-01T02:06:12.493Z,1009.41
2019-05-01T02:07:12.480Z,1009.41
2019-05-01T02:08:12.472Z,1009.40
2019-05-01T02:09:12.458Z,1009.37
2019-05-01T02:10:12.485Z,1009.33
2019-05-01T02:11:12.439Z,1009.38
2019-05-01T02:12:12.427Z,1009.32
2019-05-01T02:13:12.415Z,1009.38
2019-05-01T02:14:12.406Z,1009.35
2019-05-01T02:15:12.393Z,1009.32
2019-05-01T02:16:12.384Z,1009.30
2019-05-01T02:17:12.374Z,1009.28
2019-05-01T02:18:12.362Z,1009.24
2019-05-01T02:19:12.351Z,1009.25
2019-05-01T02:20:12.341Z,1009.25
2019-05-01T02:21:12.329Z,1009.22
2019-05-01T02:22:12.319Z,1009.21
2019-05-01T02:23:12.308Z,1009.21
2019-05-01T02:24:12.381Z,1009.21
2019-05-01T02:25:12.288Z,1009.21
2019-05-01T02:26:12.276Z,1009.27
2019-05-01T02:27:12.265Z,1009.21
2019-05-01T02:28:12.258Z,1009.16
2019-05-01T02:29:12.244Z,1009.15
2019-05-01T02:30:12.231Z,1009.18
2019-05-01T02:31:27.621Z,1009.15
2019-05-01T02:32:13.209Z,1009.18
2019-05-01T02:33:12.225Z,1009.19
2019-05-01T02:34:12.191Z,1009.16
2019-05-01T02:35:12.178Z,1009.15
2019-05-01T02:36:12.168Z,1009.19
2019-05-01T02:37:12.159Z,1009.14
2019-05-01T02:38:12.147Z,1009.20
2019-05-01T02:39:12.144Z,1009.16
2019-05-01T02:40:12.125Z,1009.20
2019-05-01T02:41:12.117Z,1009.21
2019-05-01T02:42:12.103Z,1009.19
2019-05-01T02:43:12.093Z,1009.18
2019-05-01T02:44:12.085Z,1009.19
2019-05-01T02:45:12.071Z,1009.15
2019-05-01T02:46:12.069Z,1009.15
2019-05-01T02:47:12.053Z,1009.15
2019-05-01T02:48:12.037Z,1009.16
2019-05-01T02:49:12.028Z,1009.12
2019-05-01T02:50:12.021Z,1009.15
2019-05-01T02:51:12.007Z,1009.12
2019-05-01T02:52:11.999Z,1009.09
2019-05-01T02:53:11.985Z,1009.08
2019-05-01T02:54:11.974Z,1009.12
2019-05-01T02:55:11.962Z,1009.10
2019-05-01T02:56:11.952Z,1009.11
2019-05-01T02:57:11.942Z,1009.11
2019-05-01T02:58:11.932Z,1009.01
2019-05-01T02:59:11.920Z,1009.03
2019-05-01T03:00:11.912Z,1008.98
2019-05-01T03:01:14.316Z,1009.01
2019-05-01T03:02:11.888Z,1009.04
2019-05-01T03:03:11.876Z,1008.99
2019-05-01T03:04:11.874Z,1008.99
2019-05-01T03:05:11.864Z,1008.97
2019-05-01T03:06:11.849Z,1008.89
2019-05-01T03:07:11.834Z,1008.97
2019-05-01T03:08:11.824Z,1008.95
2019-05-01T03:09:11.822Z,1008.95
2019-05-01T03:10:11.801Z,1008.95
2019-05-01T03:11:11.792Z,1008.93
2019-05-01T03:12:11.782Z,1008.96
2019-05-01T03:13:11.776Z,1008.96
2019-05-01T03:14:11.759Z,1008.94
2019-05-01T03:15:11.780Z,1008.87
2019-05-01T03:16:11.739Z,1008.87
2019-05-01T03:17:11.729Z,1008.92
2019-05-01T03:18:11.717Z,1008.91
2019-05-01T03:19:11.705Z,1008.88
2019-05-01T03:20:11.701Z,1008.84
2019-05-01T03:21:11.685Z,1008.82
2019-05-01T03:22:11.675Z,1008.83
2019-05-01T03:23:11.663Z,1008.80
2019-05-01T03:24:11.652Z,1008.83
2019-05-01T03:25:11.643Z,1008.74
2019-05-01T03:26:11.630Z,1008.76
2019-05-01T03:27:11.619Z,1008.78
2019-05-01T03:28:11.608Z,1008.75
2019-05-01T03:29:11.598Z,1008.73
2019-05-01T03:30:11.588Z,1008.72
2019-05-01T03:31:11.578Z,1008.68
2019-05-01T03:32:18.801Z,1008.69
2019-05-01T03:33:12.564Z,1008.71
2019-05-01T03:34:11.546Z,1008.65
2019-05-01T03:35:11.567Z,1008.72
2019-05-01T03:36:11.533Z,1008.71
2019-05-01T03:37:11.512Z,1008.73
2019-05-01T03:38:11.503Z,1008.72
2019-05-01T03:39:11.490Z,1008.72
2019-05-01T03:40:12.363Z,1008.62
2019-05-01T03:41:11.469Z,1008.68
2019-05-01T03:42:11.458Z,1008.62
2019-05-01T03:43:11.445Z,1008.65
2019-05-01T03:44:11.438Z,1008.67
2019-05-01T03:45:11.424Z,1008.73
2019-05-01T03:46:11.413Z,1008.73
2019-05-01T03:47:11.403Z,1008.74
2019-05-01T03:48:11.393Z,1008.73
2019-05-01T03:49:11.382Z,1008.69
2019-05-01T03:50:11.372Z,1008.78
2019-05-01T03:51:11.360Z,1008.74
2019-05-01T03:52:11.353Z,1008.73
2019-05-01T03:53:11.339Z,1008.70
2019-05-01T03:54:11.330Z,1008.72
2019-05-01T03:55:11.320Z,1008.73
2019-05-01T03:56:11.306Z,1008.70
2019-05-01T03:57:12.824Z,1008.74
2019-05-01T03:58:11.293Z,1008.71
2019-05-01T03:59:11.274Z,1008.75
2019-05-01T04:00:11.264Z,1008.72
2019-05-01T04:01:11.255Z,1008.76
2019-05-01T04:02:11.244Z,1008.74
2019-05-01T04:03:11.231Z,1008.71
2019-05-01T04:04:11.226Z,1008.69
2019-05-01T04:05:11.209Z,1008.69
2019-05-01T04:06:11.198Z,1008.67
2019-05-01T04:07:11.198Z,1008.72
2019-05-01T04:08:11.177Z,1008.70
2019-05-01T04:09:11.166Z,1008.68
2019-05-01T04:10:11.167Z,1008.71
2019-05-01T04:11:11.153Z,1008.66
2019-05-01T04:12:11.142Z,1008.73
2019-05-01T04:13:11.123Z,1008.73
2019-05-01T04:14:11.112Z,1008.75
2019-05-01T04:15:11.105Z,1008.72
2019-05-01T04:16:11.093Z,1008.80
2019-05-01T04:17:11.081Z,1008.80
2019-05-01T04:18:11.074Z,1008.79
2019-05-01T04:19:11.071Z,1008.74
2019-05-01T04:20:11.048Z,1008.80
2019-05-01T04:21:11.043Z,1008.76
2019-05-01T04:22:11.026Z,1008.79
2019-05-01T04:23:11.015Z,1008.74
2019-05-01T04:24:11.005Z,1008.74
2019-05-01T04:25:10.993Z,1008.78
2019-05-01T04:26:10.984Z,1008.71
2019-05-01T04:27:10.973Z,1008.78
2019-05-01T04:28:10.962Z,1008.86
2019-05-01T04:29:10.958Z,1008.82
2019-05-01T04:30:10.940Z,1008.87
2019-05-01T04:31:10.929Z,1008.87
2019-05-01T04:32:10.919Z,1008.85
2019-05-01T04:33:10.912Z,1008.87
2019-05-01T04:34:10.903Z,1008.86
2019-05-01T04:35:10.886Z,1008.82
2019-05-01T04:36:10.876Z,1008.86
2019-05-01T04:37:10.863Z,1008.86
2019-05-01T04:38:10.856Z,1008.87
2019-05-01T04:39:10.842Z,1008.90
2019-05-01T04:40:10.831Z,1008.92
2019-05-01T04:41:10.820Z,1008.88
2019-05-01T04:42:10.812Z,1008.86
2019-05-01T04:43:10.799Z,1008.86
2019-05-01T04:44:10.788Z,1008.81
2019-05-01T04:45:10.781Z,1008.80
2019-05-01T04:46:10.770Z,1008.79
2019-05-01T04:47:10.758Z,1008.83
2019-05-01T04:48:10.749Z,1008.85
2019-05-01T04:49:10.735Z,1008.78
2019-05-01T04:50:10.727Z,1008.88
2019-05-01T04:51:10.749Z,1008.94
2019-05-01T04:52:10.722Z,1008.88
2019-05-01T04:53:10.691Z,1008.90
2019-05-01T04:54:10.680Z,1008.84
2019-05-01T04:55:10.674Z,1008.85
2019-05-01T04:56:10.659Z,1008.82
2019-05-01T04:57:10.648Z,1008.84
2019-05-01T04:58:10.638Z,1008.86
2019-05-01T04:59:10.626Z,1008.83
2019-05-01T05:00:10.616Z,1008.88
2019-05-01T05:01:10.607Z,1008.85
2019-05-01T05:02:10.597Z,1008.90
2019-05-01T05:03:10.583Z,1008.88
2019-05-01T05:04:10.572Z,1008.95
2019-05-01T05:05:10.563Z,1008.97
2019-05-01T05:06:10.558Z,1008.94
2019-05-01T05:07:10.539Z,1009.02
2019-05-01T05:08:10.532Z,1009.00
2019-05-01T05:09:10.517Z,1008.96
2019-05-01T05:10:10.508Z,1009.03
2019-05-01T05:11:10.496Z,1008.98
2019-05-01T05:12:10.486Z,1008.97
2019-05-01T05:13:10.476Z,1008.99
2019-05-01T05:14:10.464Z,1009.05
2019-05-01T05:15:10.456Z,1009.04
2019-05-01T05:16:10.442Z,1009.05
2019-05-01T05:17:10.432Z,1009.01
2019-05-01T05:18:10.423Z,1009.08
2019-05-01T05:19:10.410Z,1009.07
2019-05-01T05:20:10.401Z,1009.04
2019-05-01T05:21:10.390Z,1009.06
2019-05-01T05:22:10.381Z,1009.08
2019-05-01T05:23:10.372Z,1009.08
2019-05-01T05:24:10.357Z,1009.07
2019-05-01T05:25:10.345Z,1009.05
2019-05-01T05:26:10.334Z,1009.04
2019-05-01T05:27:10.354Z,1009.05
2019-05-01T05:28:10.314Z,1009.01
2019-05-01T05:29:10.305Z,1009.06
2019-05-01T05:30:10.290Z,1009.08
2019-05-01T05:31:10.290Z,1009.01
2019-05-01T05:32:10.270Z,1009.02
2019-05-01T05:33:18.260Z,1009.10
2019-05-01T05:34:11.247Z,1009.10
2019-05-01T05:35:10.241Z,1009.10
2019-05-01T05:36:10.229Z,1009.07
2019-05-01T05:37:10.219Z,1009.02
2019-05-01T05:38:10.206Z,1009.06
2019-05-01T05:39:10.194Z,1009.08
2019-05-01T05:40:10.185Z,1009.09
2019-05-01T05:41:10.175Z,1009.06
2019-05-01T05:42:10.166Z,1009.09
2019-05-01T05:43:10.153Z,1009.03
2019-05-01T05:44:10.142Z,1009.04
2019-05-01T05:45:10.130Z,1009.02
2019-05-01T05:46:10.119Z,1008.99
2019-05-01T05:47:10.110Z,1009.01
2019-05-01T05:48:10.098Z,1008.98
2019-05-01T05:49:10.088Z,1008.95
2019-05-01T05:50:10.078Z,1008.97
2019-05-01T05:51:10.067Z,1009.03
2019-05-01T05:52:10.060Z,1008.90
2019-05-01T05:53:10.047Z,1008.98
2019-05-01T05:54:10.035Z,1009.00
2019-05-01T05:55:10.023Z,1009.00
2019-05-01T05:56:10.012Z,1008.98
2019-05-01T05:57:10.004Z,1009.05
2019-05-01T05:58:09.992Z,1009.01
2019-05-01T05:59:09.978Z,1008.99
2019-05-01T06:00:09.971Z,1008.99
2019-05-01T06:01:09.957Z,1008.95
2019-05-01T06:02:09.948Z,1008.93
2019-05-01T06:03:09.937Z,1008.98
2019-05-01T06:04:09.926Z,1009.04
2019-05-01T06:05:09.915Z,1008.99
2019-05-01T06:06:09.907Z,1008.98
2019-05-01T06:07:09.895Z,1008.94
2019-05-01T06:08:09.884Z,1008.95
2019-05-01T06:09:13.952Z,1008.94
2019-05-01T06:10:10.867Z,1008.94
2019-05-01T06:11:09.853Z,1008.97
2019-05-01T06:12:10.199Z,1008.99
2019-05-01T06:13:09.831Z,1008.95
2019-05-01T06:14:09.817Z,1008.96
2019-05-01T06:15:09.806Z,1008.99
2019-05-01T06:16:12.273Z,1009.03
2019-05-01T06:17:10.784Z,1008.99
2019-05-01T06:18:09.778Z,1008.99
2019-05-01T06:19:14.442Z,1008.93
2019-05-01T06:20:10.753Z,1009.01
2019-05-01T06:21:12.696Z,1009.01
2019-05-01T06:22:11.343Z,1008.99
2019-05-01T06:23:09.720Z,1009.02
2019-05-01T06:24:09.712Z,1009.04
2019-05-01T06:25:21.080Z,1008.96
2019-05-01T06:26:10.688Z,1009.01
2019-05-01T06:27:13.840Z,1009.02
2019-05-01T06:28:10.664Z,1009.02
2019-05-01T06:29:09.660Z,1009.03
2019-05-01T06:30:11.045Z,1009.08
2019-05-01T06:31:09.634Z,1009.09
2019-05-01T06:32:09.623Z,1009.05
2019-05-01T06:33:11.174Z,1009.03
2019-05-01T06:34:09.600Z,1009.00
2019-05-01T06:35:09.591Z,1009.05
2019-05-01T06:36:13.222Z,1009.04
2019-05-01T06:37:09.569Z,1009.07
2019-05-01T06:38:09.557Z,1009.01
2019-05-01T06:39:11.966Z,1008.98
2019-05-01T06:40:09.535Z,1009.01
2019-05-01T06:41:09.524Z,1009.04
2019-05-01T06:42:09.913Z,1009.06
2019-05-01T06:43:10.501Z,1009.09
2019-05-01T06:44:09.493Z,1009.08
2019-05-01T06:45:13.123Z,1009.06
2019-05-01T06:46:10.477Z,1009.10
2019-05-01T06:47:09.461Z,1009.12
2019-05-01T06:48:09.450Z,1009.11
2019-05-01T06:49:09.438Z,1009.07
2019-05-01T06:50:09.427Z,1009.05
2019-05-01T06:51:13.054Z,1009.10
2019-05-01T06:52:10.405Z,1009.13
2019-05-01T06:53:09.397Z,1009.14
2019-05-01T06:54:11.385Z,1009.19
2019-05-01T06:55:10.369Z,1009.11
2019-05-01T06:56:09.364Z,1009.09
2019-05-01T06:57:09.350Z,1009.09
2019-05-01T06:58:09.339Z,1009.09
2019-05-01T06:59:09.327Z,1009.07
2019-05-01T07:00:09.528Z,1009.11
2019-05-01T07:01:09.307Z,1009.15
2019-05-01T07:02:09.295Z,1009.11
2019-05-01T07:03:10.399Z,1009.12
2019-05-01T07:04:09.273Z,1009.08
2019-05-01T07:05:14.452Z,1009.11
2019-05-01T07:06:14.305Z,1009.10
2019-05-01T07:07:23.991Z,1009.05
2019-05-01T07:08:10.234Z,1009.04
2019-05-01T07:09:11.768Z,1009.06
2019-05-01T07:10:09.210Z,1009.12
2019-05-01T07:11:10.851Z,1009.14
2019-05-01T07:12:10.185Z,1009.14
2019-05-01T07:13:09.175Z,1009.11
2019-05-01T07:14:11.130Z,1009.10
2019-05-01T07:15:10.153Z,1009.16
2019-05-01T07:16:09.143Z,1009.07
2019-05-01T07:17:13.458Z,1009.24
2019-05-01T07:18:11.559Z,1009.15
2019-05-01T07:19:09.110Z,1009.23
2019-05-01T07:20:11.855Z,1009.14
2019-05-01T07:21:10.087Z,1009.12
2019-05-01T07:22:09.079Z,1009.13
2019-05-01T07:23:12.814Z,1009.17
2019-05-01T07:24:10.057Z,1009.10
2019-05-01T07:25:09.043Z,1009.10
2019-05-01T07:26:09.971Z,1009.10
2019-05-01T07:27:09.022Z,1009.15
2019-05-01T07:28:09.011Z,1009.15
2019-05-01T07:29:09.998Z,1009.22
2019-05-01T07:30:08.990Z,1009.24
2019-05-01T07:31:08.980Z,1009.24
2019-05-01T07:32:08.971Z,1009.23
2019-05-01T07:33:12.076Z,1009.25
2019-05-01T07:34:16.329Z,1009.22
2019-05-01T07:35:09.933Z,1009.27
2019-05-01T07:36:15.516Z,1009.28
2019-05-01T07:37:09.912Z,1009.31
2019-05-01T07:38:08.902Z,1009.30
2019-05-01T07:39:14.248Z,1009.30
2019-05-01T07:40:09.878Z,1009.29
2019-05-01T07:41:08.870Z,1009.24
2019-05-01T07:42:12.434Z,1009.24
2019-05-01T07:43:08.869Z,1009.28
2019-05-01T07:44:08.842Z,1009.28
2019-05-01T07:45:09.750Z,1009.28
2019-05-01T07:46:08.816Z,1009.22
2019-05-01T07:47:08.805Z,1009.29
2019-05-01T07:48:08.793Z,1009.27
2019-05-01T07:49:12.924Z,1009.27
2019-05-01T07:50:09.770Z,1009.19
2019-05-01T07:51:08.983Z,1009.25
2019-05-01T07:52:12.507Z,1009.19
2019-05-01T07:53:09.740Z,1009.24
2019-05-01T07:54:09.051Z,1009.21
2019-05-01T07:55:12.976Z,1009.21
2019-05-01T07:56:09.707Z,1009.27
2019-05-01T07:57:08.714Z,1009.28
2019-05-01T07:58:10.461Z,1009.25
2019-05-01T07:59:09.675Z,1009.31
2019-05-01T08:00:08.705Z,1009.26
2019-05-01T08:01:12.921Z,1009.28
2019-05-01T08:02:09.642Z,1009.24
2019-05-01T08:03:08.638Z,1009.30
2019-05-01T08:04:08.621Z,1009.25
2019-05-01T08:05:09.935Z,1009.30
2019-05-01T08:06:08.602Z,1009.25
2019-05-01T08:07:08.589Z,1009.32
2019-05-01T08:08:09.642Z,1009.31
2019-05-01T08:09:11.272Z,1009.34
2019-05-01T08:10:09.558Z,1009.33
2019-05-01T08:11:10.318Z,1009.40
2019-05-01T08:12:08.535Z,1009.31
2019-05-01T08:13:08.538Z,1009.34
2019-05-01T08:14:11.974Z,1009.32
2019-05-01T08:15:09.501Z,1009.29
2019-05-01T08:16:08.811Z,1009.37
2019-05-01T08:17:08.484Z,1009.27
2019-05-01T08:18:08.480Z,1009.31
2019-05-01T08:19:08.459Z,1009.36
2019-05-01T08:20:09.990Z,1009.47
2019-05-01T08:21:09.481Z,1009.27
2019-05-01T08:22:08.427Z,1009.29
2019-05-01T08:23:12.097Z,1009.50
2019-05-01T08:24:09.419Z,1009.30
2019-05-01T08:25:08.395Z,1009.23
2019-05-01T08:26:08.948Z,1009.40
2019-05-01T08:27:08.377Z,1009.29
2019-05-01T08:28:08.364Z,1009.30
2019-05-01T08:29:08.354Z,1009.28
2019-05-01T08:30:08.341Z,1009.29
2019-05-01T08:31:08.331Z,1009.43
2019-05-01T08:32:08.321Z,1009.38
2019-05-01T08:33:09.806Z,1009.58
2019-05-01T08:34:09.299Z,1009.36
2019-05-01T08:35:08.291Z,1009.38
2019-05-01T08:36:11.770Z,1009.42
2019-05-01T08:37:09.266Z,1009.29
2019-05-01T08:38:08.258Z,1009.58
2019-05-01T08:39:09.082Z,1009.51
2019-05-01T08:40:08.235Z,1009.23
2019-05-01T08:41:08.236Z,1009.21
2019-05-01T08:42:08.267Z,1009.26
2019-05-01T08:43:08.207Z,1009.28
2019-05-01T08:44:08.197Z,1009.24
2019-05-01T08:45:08.183Z,1009.36
2019-05-01T08:46:11.851Z,1009.48
2019-05-01T08:47:09.160Z,1009.26
2019-05-01T08:48:08.150Z,1009.42
2019-05-01T08:49:11.351Z,1009.48
2019-05-01T08:50:08.129Z,1009.51
2019-05-01T08:51:08.119Z,1009.57
2019-05-01T08:52:12.581Z,1009.64
2019-05-01T08:53:09.098Z,1009.65
2019-05-01T08:54:08.087Z,1009.69
2019-05-01T08:55:09.217Z,1009.58
2019-05-01T08:56:09.772Z,1009.57
2019-05-01T08:57:08.179Z,1009.69
2019-05-01T08:58:08.823Z,1009.39
2019-05-01T08:59:09.034Z,1009.45
2019-05-01T09:00:08.027Z,1009.26
2019-05-01T09:01:10.756Z,1009.27
2019-05-01T09:02:09.962Z,1009.22
2019-05-01T09:03:08.882Z,1009.27
2019-05-01T09:04:13.091Z,1009.19
2019-05-01T09:05:26.987Z,1009.24
2019-05-01T09:06:08.962Z,1009.16
2019-05-01T09:07:07.952Z,1009.40
2019-05-01T09:08:07.942Z,1009.21
2019-05-01T09:09:09.813Z,1009.31
2019-05-01T09:10:09.204Z,1009.26
2019-05-01T09:11:07.908Z,1009.18
2019-05-01T09:12:11.749Z,1009.22
2019-05-01T09:13:08.892Z,1009.34
2019-05-01T09:14:07.881Z,1009.41
2019-05-01T09:15:12.457Z,1009.22
2019-05-01T09:16:08.856Z,1009.15
2019-05-01T09:17:07.845Z,1009.11
2019-05-01T09:18:07.850Z,1009.10
2019-05-01T09:19:07.824Z,1009.17
2019-05-01T09:20:07.819Z,1009.17
2019-05-01T09:21:07.818Z,1009.22
2019-05-01T09:22:07.799Z,1009.06
2019-05-01T09:23:09.517Z,1009.30
2019-05-01T09:24:09.483Z,1009.30
2019-05-01T09:25:07.778Z,1009.26
2019-05-01T09:26:14.631Z,1009.05
2019-05-01T09:27:08.752Z,1008.98
2019-05-01T09:28:07.764Z,1009.02
2019-05-01T09:29:11.059Z,1009.18
2019-05-01T09:30:08.719Z,1009.22
2019-05-01T09:31:07.706Z,1009.06
2019-05-01T09:32:10.282Z,1008.97
2019-05-01T09:33:07.681Z,1008.95
2019-05-01T09:34:09.474Z,1008.95
2019-05-01T09:35:15.444Z,1009.00
2019-05-01T09:36:08.656Z,1008.92
2019-05-01T09:37:07.640Z,1008.95
2019-05-01T09:38:07.628Z,1008.84
2019-05-01T09:39:07.621Z,1008.89
2019-05-01T09:40:09.166Z,1008.92
2019-05-01T09:41:07.594Z,1008.87
2019-05-01T09:42:07.586Z,1008.91
2019-05-01T09:43:07.571Z,1008.92
2019-05-01T09:44:10.795Z,1008.96
2019-05-01T09:45:07.554Z,1008.93
2019-05-01T09:46:07.540Z,1008.95
2019-05-01T09:47:07.538Z,1008.84
2019-05-01T09:48:07.519Z,1008.79
2019-05-01T09:49:07.508Z,1008.91
2019-05-01T09:50:07.498Z,1008.92
2019-05-01T09:51:07.487Z,1008.80
2019-05-01T09:52:07.480Z,1008.82
2019-05-01T09:53:07.467Z,1008.82
2019-05-01T09:54:09.817Z,1008.90
2019-05-01T09:55:07.459Z,1008.87
2019-05-01T09:56:08.838Z,1008.83
2019-05-01T09:57:07.425Z,1008.80
2019-05-01T09:58:07.412Z,1008.83
2019-05-01T09:59:07.405Z,1009.07
2019-05-01T10:00:07.390Z,1008.87
2019-05-01T10:01:07.384Z,1008.77
2019-05-01T10:02:07.946Z,1008.90
2019-05-01T10:03:07.362Z,1008.84
2019-05-01T10:04:07.359Z,1009.13
2019-05-01T10:05:07.911Z,1009.04
2019-05-01T10:06:07.330Z,1008.80
2019-05-01T10:07:07.317Z,1009.15
2019-05-01T10:08:07.306Z,1009.22
2019-05-01T10:09:07.351Z,1009.23
2019-05-01T10:10:07.298Z,1009.08
2019-05-01T10:11:07.280Z,1009.18
2019-05-01T10:12:11.636Z,1009.21
2019-05-01T10:13:08.290Z,1009.26
2019-05-01T10:14:07.328Z,1009.25
2019-05-01T10:15:07.242Z,1009.12
2019-05-01T10:16:07.230Z,1009.24
2019-05-01T10:17:07.220Z,1008.81
2019-05-01T10:18:07.209Z,1008.78
2019-05-01T10:19:07.198Z,1008.88
2019-05-01T10:20:07.187Z,1009.13
2019-05-01T10:21:07.191Z,1008.86
2019-05-01T10:22:07.169Z,1009.11
2019-05-01T10:23:07.791Z,1009.03
2019-05-01T10:24:08.147Z,1009.09
2019-05-01T10:25:08.490Z,1009.08
2019-05-01T10:26:07.141Z,1009.16
2019-05-01T10:27:07.119Z,1009.13
2019-05-01T10:28:12.095Z,1009.18
2019-05-01T10:29:08.105Z,1009.12
2019-05-01T10:30:07.101Z,1009.14
2019-05-01T10:31:11.711Z,1009.15
2019-05-01T10:32:08.089Z,1009.15
2019-05-01T10:33:07.057Z,1009.16
2019-05-01T10:34:07.705Z,1009.13
2019-05-01T10:35:07.040Z,1009.10
2019-05-01T10:36:07.038Z,1009.13
2019-05-01T10:37:07.015Z,1009.10
2019-05-01T10:38:09.434Z,1009.16
2019-05-01T10:39:07.008Z,1009.11
2019-05-01T10:40:06.985Z,1009.14
2019-05-01T10:41:09.120Z,1009.09
2019-05-01T10:42:06.977Z,1009.12
2019-05-01T10:43:06.963Z,1009.14
2019-05-01T10:44:06.949Z,1009.08
2019-05-01T10:45:06.938Z,1008.92
2019-05-01T10:46:06.927Z,1009.03
2019-05-01T10:47:06.918Z,1008.67
2019-05-01T10:48:06.911Z,1008.98
2019-05-01T10:49:06.897Z,1009.00
2019-05-01T10:50:06.884Z,1009.10
2019-05-01T10:51:06.879Z,1009.03
2019-05-01T10:52:13.992Z,1008.98
2019-05-01T10:53:07.857Z,1008.99
2019-05-01T10:54:06.842Z,1009.06
2019-05-01T10:55:06.830Z,1009.10
2019-05-01T10:56:06.821Z,1008.98
2019-05-01T10:57:06.832Z,1009.00
2019-05-01T10:58:06.813Z,1009.04
2019-05-01T10:59:06.800Z,1009.05
2019-05-01T11:00:06.783Z,1009.04
2019-05-01T11:01:06.772Z,1009.06
2019-05-01T11:02:06.764Z,1009.01
2019-05-01T11:03:06.756Z,1009.01
2019-05-01T11:04:06.747Z,1009.06
2019-05-01T11:05:06.736Z,1009.00
2019-05-01T11:06:06.729Z,1009.03
2019-05-01T11:07:06.721Z,1009.10
2019-05-01T11:08:06.706Z,1008.99
2019-05-01T11:09:06.698Z,1008.94
2019-05-01T11:10:06.683Z,1008.93
2019-05-01T11:11:06.675Z,1008.95
2019-05-01T11:12:06.667Z,1008.84
2019-05-01T11:13:07.860Z,1008.84
2019-05-01T11:14:06.646Z,1008.92
2019-05-01T11:15:06.637Z,1008.91
2019-05-01T11:16:06.629Z,1008.75
2019-05-01T11:17:06.621Z,1008.56
2019-05-01T11:18:06.609Z,1008.38
2019-05-01T11:19:06.605Z,1008.59
2019-05-01T11:20:06.591Z,1008.70
2019-05-01T11:21:06.578Z,1008.73
2019-05-01T11:22:06.564Z,1008.67
2019-05-01T11:23:06.556Z,1008.68
2019-05-01T11:24:06.547Z,1008.68
2019-05-01T11:25:06.541Z,1008.65
2019-05-01T11:26:06.524Z,1008.58
2019-05-01T11:27:06.518Z,1008.43
2019-05-01T11:28:06.504Z,1008.47
2019-05-01T11:29:06.497Z,1008.68
2019-05-01T11:30:06.494Z,1008.72
2019-05-01T11:31:06.477Z,1008.77
2019-05-01T11:32:06.465Z,1008.48
2019-05-01T11:33:06.457Z,1008.47
2019-05-01T11:34:06.445Z,1008.38
2019-05-01T11:35:06.434Z,1008.38
2019-05-01T11:36:09.697Z,1008.26
2019-05-01T11:37:06.416Z,1008.24
2019-05-01T11:38:06.408Z,1008.21
2019-05-01T11:39:06.397Z,1008.16
2019-05-01T11:40:06.384Z,1008.43
2019-05-01T11:41:06.374Z,1008.37
2019-05-01T11:42:06.365Z,1008.24
2019-05-01T11:43:06.348Z,1008.29
2019-05-01T11:44:06.344Z,1008.53
2019-05-01T11:45:06.331Z,1008.57
2019-05-01T11:46:06.320Z,1008.61
2019-05-01T11:47:06.308Z,1008.48
2019-05-01T11:48:06.299Z,1008.37
2019-05-01T11:49:06.294Z,1008.11
2019-05-01T11:50:06.296Z,1008.10
2019-05-01T11:51:06.279Z,1008.39
2019-05-01T11:52:06.259Z,1008.14
2019-05-01T11:53:06.245Z,1008.39
2019-05-01T11:54:06.236Z,1008.27
2019-05-01T11:55:06.226Z,1008.34
2019-05-01T11:56:06.217Z,1008.26
2019-05-01T11:57:06.203Z,1008.25
2019-05-01T11:58:06.197Z,1008.29
2019-05-01T11:59:06.186Z,1008.25
2019-05-01T12:00:06.175Z,1008.24
2019-05-01T12:01:06.184Z,1008.20
2019-05-01T12:02:06.154Z,1008.16
2019-05-01T12:03:06.145Z,1008.18
2019-05-01T12:04:06.137Z,1008.14
2019-05-01T12:05:06.127Z,1008.12